createdAt,value
2023-01-11T00:00:39.177Z,11.57
2023-01-11T00:03:06.754Z,14.40
2023-01-11T00:05:38.327Z,22.15
2023-01-11T00:08:05.976Z,19.83
2023-01-11T00:10:33.498Z,14.48
2023-01-11T00:13:01.742Z,16.38
2023-01-11T00:15:28.502Z,14.18
2023-01-11T00:17:55.510Z,15.55
2023-01-11T00:20:22.312Z,11.10
2023-01-11T00:22:49.055Z,14.68
2023-01-11T00:25:15.851Z,12.68
2023-01-11T00:27:42.618Z,13.10
2023-01-11T00:30:10.104Z,14.00
2023-01-11T00:32:36.808Z,17.10
2023-01-11T00:35:03.724Z,14.57
2023-01-11T00:37:30.488Z,15.05
2023-01-11T00:39:57.137Z,15.35
2023-01-11T00:42:42.266Z,17.13
2023-01-11T00:45:27.882Z,17.73
2023-01-11T00:47:57.685Z,13.13
2023-01-11T00:50:30.913Z,13.32
2023-01-11T00:52:59.136Z,14.07
2023-01-11T00:55:26.810Z,17.83
2023-01-11T00:57:54.846Z,14.45
2023-01-11T01:00:22.203Z,11.80
2023-01-11T01:02:49.626Z,13.88
2023-01-11T01:05:17.224Z,18.40
2023-01-11T01:07:44.357Z,16.08
2023-01-11T01:10:12.981Z,17.23
2023-01-11T01:12:58.207Z,13.85
2023-01-11T01:15:25.409Z,21.40
2023-01-11T01:17:56.006Z,11.48
2023-01-11T01:20:24.306Z,13.45
2023-01-11T01:22:51.028Z,16.42
2023-01-11T01:25:18.267Z,15.82
2023-01-11T01:27:45.141Z,19.10
2023-01-11T01:30:12.185Z,12.80
2023-01-11T01:32:39.618Z,15.55
2023-01-11T01:35:07.059Z,16.98
2023-01-11T01:37:33.714Z,17.63
2023-01-11T01:40:00.418Z,14.73
2023-01-11T01:42:27.211Z,13.60
2023-01-11T01:45:07.274Z,10.93
2023-01-11T01:47:45.670Z,20.35
2023-01-11T01:50:20.248Z,13.30
2023-01-11T01:52:51.830Z,13.60
2023-01-11T01:55:26.417Z,14.13
2023-01-11T01:57:55.035Z,11.38
2023-01-11T02:00:21.989Z,12.82
2023-01-11T02:02:49.624Z,21.20
2023-01-11T02:05:17.506Z,15.40
2023-01-11T02:07:46.305Z,16.65
2023-01-11T02:10:16.607Z,20.30
2023-01-11T02:13:14.442Z,17.65
2023-01-11T02:15:41.260Z,19.73
2023-01-11T02:18:13.862Z,13.82
2023-01-11T02:20:49.542Z,13.75
2023-01-11T02:26:07.871Z,14.45
2023-01-11T02:28:39.409Z,17.55
2023-01-11T02:31:19.628Z,16.48
2023-01-11T02:33:52.106Z,15.40
2023-01-11T02:36:30.531Z,14.60
2023-01-11T02:39:17.519Z,17.02
2023-01-11T02:42:13.329Z,20.00
2023-01-11T02:45:02.818Z,18.45
2023-01-11T02:47:57.433Z,15.55
2023-01-11T02:50:42.302Z,16.75
2023-01-11T02:53:16.554Z,15.02
2023-01-11T02:55:48.522Z,17.33
2023-01-11T02:58:18.354Z,22.88
2023-01-11T03:00:46.471Z,16.13
2023-01-11T03:03:21.889Z,17.08
2023-01-11T03:06:08.703Z,19.27
2023-01-11T03:08:58.469Z,13.70
2023-01-11T03:12:29.522Z,15.68
2023-01-11T03:15:30.979Z,15.38
2023-01-11T03:18:23.938Z,20.38
2023-01-11T03:21:18.462Z,19.45
2023-01-11T03:23:56.991Z,16.30
2023-01-11T03:26:51.794Z,16.90
2023-01-11T03:29:32.420Z,15.88
2023-01-11T03:32:20.819Z,16.35
2023-01-11T03:35:05.485Z,16.98
2023-01-11T03:37:48.947Z,17.33
2023-01-11T03:40:29.363Z,17.83
2023-01-11T03:43:13.918Z,17.17
2023-01-11T03:45:58.741Z,16.42
2023-01-11T03:48:39.869Z,16.80
2023-01-11T03:51:11.947Z,16.42
2023-01-11T03:53:41.061Z,14.18
2023-01-11T03:56:11.781Z,15.20
2023-01-11T03:58:38.796Z,16.65
2023-01-11T04:01:06.091Z,19.13
2023-01-11T04:03:32.959Z,14.23
2023-01-11T04:06:03.013Z,16.92
2023-01-11T04:08:31.216Z,19.95
2023-01-11T04:10:58.131Z,14.10
2023-01-11T04:13:24.843Z,13.90
2023-01-11T04:15:53.507Z,18.50
2023-01-11T04:18:20.183Z,14.52
2023-01-11T04:20:47.075Z,15.10
2023-01-11T04:23:15.141Z,14.13
2023-01-11T04:25:41.816Z,14.48
2023-01-11T04:28:08.529Z,13.38
2023-01-11T04:30:36.042Z,16.20
2023-01-11T04:33:03.133Z,14.52
2023-01-11T04:35:29.849Z,16.25
2023-01-11T04:37:57.569Z,14.35
2023-01-11T04:40:25.581Z,13.05
2023-01-11T04:42:52.321Z,11.38
2023-01-11T04:45:19.530Z,11.18
2023-01-11T04:47:46.302Z,16.17
2023-01-11T04:50:13.169Z,23.42
2023-01-11T04:52:41.551Z,18.05
2023-01-11T04:55:09.552Z,17.35
2023-01-11T04:57:36.409Z,13.43
2023-01-11T05:00:10.648Z,15.82
2023-01-11T05:02:38.411Z,17.77
2023-01-11T05:05:06.980Z,15.00
2023-01-11T05:07:34.296Z,18.80
2023-01-11T05:10:01.059Z,17.13
2023-01-11T05:12:27.705Z,13.10
2023-01-11T05:14:54.637Z,12.88
2023-01-11T05:17:21.294Z,18.85
2023-01-11T05:19:48.003Z,15.85
2023-01-11T05:22:14.981Z,19.23
2023-01-11T05:24:41.665Z,15.52
2023-01-11T05:27:09.200Z,14.85
2023-01-11T05:29:35.879Z,22.77
2023-01-11T05:32:02.558Z,17.90
2023-01-11T05:34:29.300Z,20.13
2023-01-11T05:36:56.028Z,20.73
2023-01-11T05:39:23.903Z,15.30
2023-01-11T05:41:50.668Z,16.70
2023-01-11T05:44:36.735Z,17.00
2023-01-11T05:49:31.103Z,16.83
2023-01-11T05:51:57.867Z,12.43
2023-01-11T05:54:24.886Z,19.05
2023-01-11T05:56:51.667Z,13.20
2023-01-11T05:59:18.609Z,17.05
2023-01-11T06:01:45.371Z,19.58
2023-01-11T06:04:12.105Z,13.50
2023-01-11T06:06:38.964Z,30.13
2023-01-11T06:09:05.799Z,17.60
2023-01-11T06:11:32.599Z,13.35
2023-01-11T06:13:59.391Z,12.85
2023-01-11T06:16:26.177Z,14.55
2023-01-11T06:18:54.257Z,15.60
2023-01-11T06:21:21.916Z,22.73
2023-01-11T06:23:51.019Z,18.08
2023-01-11T06:26:20.643Z,18.50
2023-01-11T06:28:48.066Z,17.05
2023-01-11T06:31:17.143Z,14.25
2023-01-11T06:33:44.885Z,14.07
2023-01-11T06:36:13.134Z,13.95
2023-01-11T06:38:40.265Z,14.30
2023-01-11T06:41:10.652Z,16.90
2023-01-11T06:43:38.716Z,19.17
2023-01-11T06:46:05.712Z,13.93
2023-01-11T06:48:32.565Z,11.82
2023-01-11T06:50:59.814Z,25.83
2023-01-11T06:53:29.135Z,17.38
2023-01-11T06:55:58.298Z,22.08
2023-01-11T06:58:26.250Z,14.60
2023-01-11T07:00:55.214Z,16.75
2023-01-11T07:03:24.375Z,18.02
2023-01-11T07:05:52.925Z,17.13
2023-01-11T07:08:20.237Z,20.45
2023-01-11T07:10:47.230Z,21.45
2023-01-11T07:13:17.632Z,18.45
2023-01-11T07:15:45.534Z,15.70
2023-01-11T07:18:12.420Z,20.40
2023-01-11T07:20:39.762Z,16.98
2023-01-11T07:23:07.717Z,18.30
2023-01-11T07:25:34.952Z,14.52
2023-01-11T07:28:04.718Z,20.65
2023-01-11T07:30:44.591Z,22.33
2023-01-11T07:33:18.887Z,23.10
2023-01-11T07:35:47.890Z,24.20
2023-01-11T07:38:14.733Z,19.60
2023-01-11T07:40:41.997Z,28.45
2023-01-11T07:43:14.332Z,23.42
2023-01-11T07:45:45.889Z,18.98
2023-01-11T07:48:14.038Z,14.75
2023-01-11T07:50:44.599Z,17.75
2023-01-11T07:53:12.305Z,19.58
2023-01-11T07:55:40.159Z,25.20
2023-01-11T07:58:11.430Z,17.35
2023-01-11T08:00:38.687Z,20.52
2023-01-11T08:03:05.557Z,16.23
2023-01-11T08:05:32.629Z,34.35
2023-01-11T08:07:59.381Z,45.80
2023-01-11T08:10:26.112Z,45.95
2023-01-11T08:13:11.546Z,41.90
2023-01-11T08:15:39.064Z,36.58
2023-01-11T08:18:06.498Z,30.95
2023-01-11T08:20:33.451Z,32.60
2023-01-11T08:23:05.163Z,27.52
2023-01-11T08:25:33.300Z,26.95
2023-01-11T08:28:05.404Z,25.05
2023-01-11T08:30:32.303Z,27.05
2023-01-11T08:33:01.659Z,24.27
2023-01-11T08:35:28.832Z,26.15
2023-01-11T08:37:55.507Z,21.38
2023-01-11T08:40:24.202Z,21.20
2023-01-11T08:43:00.197Z,18.10
2023-01-11T08:45:27.496Z,16.83
2023-01-11T08:47:54.841Z,18.27
2023-01-11T08:50:22.775Z,16.60
2023-01-11T08:52:51.156Z,17.35
2023-01-11T08:55:19.038Z,17.05
2023-01-11T08:57:46.261Z,16.35
2023-01-11T09:00:13.794Z,13.55
2023-01-11T09:02:40.765Z,12.45
2023-01-11T09:05:08.056Z,15.57
2023-01-11T09:07:34.826Z,9.57
2023-01-11T09:10:01.597Z,12.93
2023-01-11T09:12:28.382Z,12.15
2023-01-11T09:14:55.135Z,12.27
2023-01-11T09:17:21.952Z,10.32
2023-01-11T09:19:48.733Z,12.38
2023-01-11T09:22:15.596Z,17.65
2023-01-11T09:24:42.337Z,12.43
2023-01-11T09:27:11.499Z,13.35
2023-01-11T09:29:38.420Z,18.70
2023-01-11T09:32:05.957Z,27.48
2023-01-11T09:34:33.464Z,27.90
2023-01-11T09:37:02.627Z,24.00
2023-01-11T09:39:29.683Z,14.50
2023-01-11T09:42:06.200Z,11.98
2023-01-11T09:44:36.653Z,9.90
2023-01-11T09:47:17.654Z,16.73
2023-01-11T09:49:50.937Z,15.15
2023-01-11T09:52:29.981Z,12.10
2023-01-11T09:55:00.413Z,15.30
2023-01-11T09:58:06.703Z,19.65
2023-01-11T10:00:41.940Z,23.08
2023-01-11T10:03:17.488Z,14.82
2023-01-11T10:18:32.894Z,15.93
2023-01-11T10:20:40.898Z,12.13
2023-01-11T10:23:28.737Z,8.05
2023-01-11T10:25:58.806Z,11.95
2023-01-11T10:28:47.117Z,11.75
2023-01-11T10:31:45.713Z,11.13
2023-01-11T10:34:38.597Z,9.00
2023-01-11T10:37:20.837Z,10.10
2023-01-11T10:40:18.419Z,7.15
2023-01-11T10:42:59.966Z,10.93
2023-01-11T10:45:37.372Z,10.10
2023-01-11T10:48:07.469Z,9.05
2023-01-11T10:50:43.910Z,7.57
2023-01-11T10:53:28.330Z,8.70
2023-01-11T10:56:16.241Z,17.67
2023-01-11T10:58:46.449Z,13.23
2023-01-11T11:01:22.618Z,9.18
2023-01-11T11:04:16.640Z,8.70
2023-01-11T11:07:11.575Z,10.35
2023-01-11T11:09:48.321Z,13.27
2023-01-11T11:12:37.196Z,8.85
2023-01-11T11:15:08.804Z,9.57
2023-01-11T11:17:37.932Z,9.55
2023-01-11T11:20:31.908Z,10.80
2023-01-11T11:22:58.984Z,7.68
2023-01-11T11:25:31.171Z,7.47
2023-01-11T11:28:06.706Z,10.90
2023-01-11T11:30:39.261Z,12.88
2023-01-11T11:33:15.185Z,9.05
2023-01-11T11:35:45.755Z,8.20
2023-01-11T11:38:29.028Z,8.95
2023-01-11T11:41:17.227Z,10.27
2023-01-11T11:43:46.450Z,9.65
2023-01-11T11:46:20.334Z,8.77
2023-01-11T11:49:15.756Z,10.55
2023-01-11T11:51:45.520Z,8.90
2023-01-11T11:54:43.573Z,12.15
2023-01-11T11:57:23.376Z,10.57
2023-01-11T11:59:59.591Z,10.57
2023-01-11T12:02:29.701Z,9.85
2023-01-11T12:04:58.305Z,10.32
2023-01-11T12:07:29.349Z,8.45
2023-01-11T12:10:00.914Z,10.10
2023-01-11T12:12:29.488Z,8.90
2023-01-11T12:15:28.835Z,11.40
2023-01-11T12:18:15.399Z,12.48
2023-01-11T12:20:44.665Z,8.90
2023-01-11T12:23:26.117Z,9.93
2023-01-11T12:26:18.950Z,9.73
2023-01-11T12:29:02.864Z,11.45
2023-01-11T12:31:32.893Z,12.65
2023-01-11T12:34:18.390Z,12.15
2023-01-11T12:37:20.539Z,13.50
2023-01-11T12:40:01.914Z,10.55
2023-01-11T12:42:49.981Z,16.48
2023-01-11T12:45:26.829Z,16.33
2023-01-11T12:47:54.583Z,21.50
2023-01-11T12:50:30.591Z,16.23
2023-01-11T12:53:23.529Z,20.52
2023-01-11T12:56:03.742Z,19.08
2023-01-11T12:58:35.970Z,15.93
2023-01-11T13:01:30.429Z,13.13
2023-01-11T13:04:15.484Z,20.45
2023-01-11T13:06:58.898Z,15.23
2023-01-11T13:09:36.379Z,18.25
2023-01-11T13:12:24.792Z,19.23
2023-01-11T13:15:10.055Z,20.00
2023-01-11T13:18:05.347Z,18.75
2023-01-11T13:20:59.462Z,12.02
2023-01-11T13:23:45.600Z,17.20
2023-01-11T13:26:27.725Z,18.33
2023-01-11T13:29:01.014Z,14.80
2023-01-11T13:31:29.100Z,14.15
2023-01-11T13:34:03.482Z,22.40
2023-01-11T13:36:38.675Z,17.88
2023-01-11T13:39:16.159Z,17.00
2023-01-11T13:41:56.855Z,16.15
2023-01-11T13:44:37.974Z,18.45
2023-01-11T13:47:36.776Z,16.13
2023-01-11T13:50:28.041Z,22.05
2023-01-11T13:53:16.953Z,17.85
2023-01-11T13:55:55.168Z,13.70
2023-01-11T13:58:29.037Z,18.48
2023-01-11T14:01:02.097Z,18.17
2023-01-11T14:03:31.225Z,20.45
2023-01-11T14:06:19.175Z,14.65
2023-01-11T14:08:48.680Z,25.77
2023-01-11T14:11:22.348Z,19.98
2023-01-11T14:14:26.060Z,14.68
2023-01-11T14:17:20.544Z,11.98
2023-01-11T14:20:05.430Z,15.88
2023-01-11T14:22:32.185Z,13.50
2023-01-11T14:25:04.452Z,14.23
2023-01-11T14:27:55.271Z,15.70
2023-01-11T14:30:46.987Z,12.18
2023-01-11T14:33:16.783Z,11.32
2023-01-11T14:36:04.768Z,14.90
2023-01-11T14:39:18.914Z,18.92
2023-01-11T14:42:08.587Z,12.60
2023-01-11T14:44:49.837Z,10.82
2023-01-11T14:47:35.101Z,11.77
2023-01-11T14:50:18.640Z,8.93
2023-01-11T14:52:46.072Z,12.80
2023-01-11T14:55:26.968Z,12.70
2023-01-11T14:57:56.409Z,8.65
2023-01-11T15:00:23.082Z,12.65
2023-01-11T15:03:00.347Z,13.95
2023-01-11T15:05:30.959Z,9.27
2023-01-11T15:08:13.291Z,11.63
2023-01-11T15:10:49.408Z,10.95
2023-01-11T15:13:46.365Z,15.43
2023-01-11T15:16:48.121Z,10.00
2023-01-11T15:19:34.149Z,10.15
2023-01-11T15:24:36.849Z,11.32
2023-01-11T15:27:03.948Z,11.40
2023-01-11T15:29:39.167Z,14.32
2023-01-11T15:32:26.127Z,9.18
2023-01-11T15:34:53.180Z,13.93
2023-01-11T15:37:47.992Z,14.15
2023-01-11T15:40:21.988Z,9.68
2023-01-11T15:43:18.471Z,14.43
2023-01-11T15:49:07.574Z,9.50
2023-01-11T15:52:04.726Z,8.23
2023-01-11T15:54:55.858Z,10.07
2023-01-11T15:58:01.310Z,14.85
2023-01-11T16:00:49.385Z,12.77
2023-01-11T16:03:28.205Z,11.35
2023-01-11T16:06:17.684Z,11.90
2023-01-11T16:08:58.548Z,11.13
2023-01-11T16:11:40.436Z,13.23
2023-01-11T16:14:31.991Z,9.55
2023-01-11T16:16:59.082Z,12.05
2023-01-11T16:19:31.237Z,16.60
2023-01-11T16:22:03.493Z,13.18
2023-01-11T16:24:39.361Z,14.52
2023-01-11T16:27:07.566Z,10.52
2023-01-11T16:29:37.127Z,11.80
2023-01-11T16:32:06.159Z,19.00
2023-01-11T16:34:44.906Z,17.50
2023-01-11T16:37:26.474Z,14.10
2023-01-11T16:39:57.839Z,29.30
2023-01-11T16:42:26.593Z,24.48
2023-01-11T16:44:59.421Z,20.00
2023-01-11T16:47:26.230Z,20.63
2023-01-11T16:50:28.834Z,18.77
2023-01-11T16:53:02.315Z,26.00
2023-01-11T16:55:39.940Z,20.85
2023-01-11T16:58:21.339Z,25.67
2023-01-11T17:00:58.910Z,33.65
2023-01-11T17:03:31.236Z,25.67
2023-01-11T17:06:10.248Z,22.65
2023-01-11T17:08:38.263Z,24.95
2023-01-11T17:11:31.553Z,21.27
2023-01-11T17:14:19.337Z,21.60
2023-01-11T17:16:52.746Z,20.92
2023-01-11T17:19:23.231Z,18.83
2023-01-11T17:21:58.631Z,20.75
2023-01-11T17:24:27.055Z,21.35
2023-01-11T17:27:00.296Z,19.83
2023-01-11T17:29:39.553Z,19.20
2023-01-11T17:32:13.056Z,19.08
2023-01-11T17:34:40.317Z,20.20
2023-01-11T17:37:12.683Z,26.00
2023-01-11T17:39:44.477Z,19.65
2023-01-11T17:42:32.723Z,22.45
2023-01-11T17:45:15.717Z,21.80
2023-01-11T17:47:47.538Z,28.17
2023-01-11T17:50:32.245Z,27.63
2023-01-11T17:53:12.614Z,23.63
2023-01-11T17:55:56.731Z,25.55
2023-01-11T17:58:34.474Z,27.60
2023-01-11T18:01:19.164Z,23.52
2023-01-11T18:03:50.301Z,28.13
2023-01-11T18:06:23.019Z,21.85
2023-01-11T18:08:52.895Z,24.58
2023-01-11T18:11:32.367Z,27.05
2023-01-11T18:14:02.492Z,23.45
2023-01-11T18:16:29.480Z,25.40
2023-01-11T18:18:56.864Z,21.92
2023-01-11T18:21:26.533Z,26.67
2023-01-11T18:24:11.425Z,24.63
2023-01-11T18:26:42.862Z,30.15
2023-01-11T18:29:37.676Z,26.30
2023-01-11T18:32:05.826Z,24.33
2023-01-11T18:34:32.590Z,29.05
2023-01-11T18:37:00.690Z,28.27
2023-01-11T18:39:27.796Z,29.38
2023-01-11T18:42:07.233Z,26.85
2023-01-11T18:44:35.163Z,26.90
2023-01-11T18:47:11.085Z,26.73
2023-01-11T18:49:37.833Z,31.13
2023-01-11T18:52:05.452Z,31.38
2023-01-11T18:54:32.441Z,25.40
2023-01-11T18:56:59.224Z,29.50
2023-01-11T18:59:26.140Z,29.52
2023-01-11T19:02:01.557Z,26.02
2023-01-11T19:04:38.711Z,28.42
2023-01-11T19:07:05.573Z,30.10
2023-01-11T19:09:32.318Z,23.20
2023-01-11T19:11:59.038Z,24.85
2023-01-11T19:14:25.793Z,29.58
2023-01-11T19:16:52.566Z,25.98
2023-01-11T19:19:19.389Z,26.42
2023-01-11T19:21:46.125Z,29.10
2023-01-11T19:24:12.791Z,24.42
2023-01-11T19:26:39.562Z,25.25
2023-01-11T19:29:06.475Z,24.77
2023-01-11T19:31:33.315Z,25.63
2023-01-11T19:34:00.049Z,23.20
2023-01-11T19:36:29.143Z,21.33
2023-01-11T19:38:55.883Z,23.73
2023-01-11T19:41:22.581Z,27.40
2023-01-11T19:43:49.643Z,22.77
2023-01-11T19:46:30.166Z,23.92
2023-01-11T19:48:58.180Z,28.65
2023-01-11T19:51:24.843Z,26.83
2023-01-11T19:53:51.672Z,21.83
2023-01-11T19:56:18.681Z,29.58
2023-01-11T19:58:45.391Z,26.15
2023-01-11T20:01:12.893Z,21.20
2023-01-11T20:03:41.679Z,28.20
2023-01-11T20:06:09.168Z,20.02
2023-01-11T20:08:38.558Z,24.52
2023-01-11T20:11:08.046Z,20.52
2023-01-11T20:13:35.337Z,18.77
2023-01-11T20:16:06.850Z,24.25
2023-01-11T20:18:33.907Z,22.63
2023-01-11T20:21:00.718Z,23.88
2023-01-11T20:23:30.480Z,27.70
2023-01-11T20:26:01.967Z,24.05
2023-01-11T20:28:28.730Z,20.27
2023-01-11T20:30:59.677Z,21.25
2023-01-11T20:33:27.476Z,21.77
2023-01-11T20:35:54.212Z,21.88
2023-01-11T20:38:20.903Z,23.83
2023-01-11T20:40:47.695Z,23.20
2023-01-11T20:43:14.407Z,20.73
2023-01-11T20:45:41.133Z,24.48
2023-01-11T20:48:08.037Z,24.50
2023-01-11T20:50:36.177Z,27.38
2023-01-11T20:53:03.623Z,22.33
2023-01-11T20:55:30.648Z,20.15
2023-01-11T20:57:58.428Z,25.02
2023-01-11T21:00:25.458Z,26.58
2023-01-11T21:02:52.341Z,25.85
2023-01-11T21:05:19.116Z,28.88
2023-01-11T21:07:46.897Z,25.13
2023-01-11T21:10:13.655Z,24.58
2023-01-11T21:12:40.333Z,25.52
2023-01-11T21:15:10.505Z,28.05
2023-01-11T21:17:37.987Z,25.23
2023-01-11T21:20:05.356Z,22.00
2023-01-11T21:22:32.023Z,31.00
2023-01-11T21:24:58.785Z,24.98
2023-01-11T21:27:25.719Z,24.75
2023-01-11T21:29:52.448Z,29.33
2023-01-11T21:32:19.299Z,28.55
2023-01-11T21:34:46.022Z,26.70
2023-01-11T21:37:12.699Z,27.10
2023-01-11T21:39:39.896Z,24.27
2023-01-11T21:42:06.605Z,25.35
2023-01-11T21:44:34.073Z,32.90
2023-01-11T21:47:02.651Z,26.77
2023-01-11T21:49:30.036Z,28.20
2023-01-11T21:51:56.847Z,26.15
2023-01-11T21:54:24.054Z,28.85
2023-01-11T21:56:51.737Z,27.75
2023-01-11T21:59:20.263Z,22.85
2023-01-11T22:01:49.512Z,22.73
2023-01-11T22:04:19.009Z,26.10
2023-01-11T22:06:50.995Z,24.58
2023-01-11T22:09:18.698Z,26.30
2023-01-11T22:11:45.812Z,27.95
2023-01-11T22:14:12.865Z,25.13
2023-01-11T22:16:40.669Z,27.92
2023-01-11T22:19:08.463Z,24.08
2023-01-11T22:21:36.685Z,28.60
2023-01-11T22:24:03.596Z,27.33
2023-01-11T22:26:33.322Z,29.88
2023-01-11T22:29:12.636Z,26.38
2023-01-11T22:31:52.503Z,27.42
2023-01-11T22:34:19.708Z,24.20
2023-01-11T22:36:47.152Z,29.85
2023-01-11T22:39:15.146Z,27.63
2023-01-11T22:41:45.654Z,26.63
2023-01-11T22:44:12.731Z,26.75
2023-01-11T22:46:39.786Z,27.60
2023-01-11T22:49:07.076Z,26.05
2023-01-11T22:51:34.162Z,27.13
2023-01-11T22:54:00.882Z,27.42
2023-01-11T22:56:29.340Z,25.08
2023-01-11T22:58:57.154Z,24.27
2023-01-11T23:01:38.561Z,25.00
2023-01-11T23:04:06.706Z,31.05
2023-01-11T23:06:36.438Z,32.92
2023-01-11T23:09:05.686Z,24.50
2023-01-11T23:11:55.393Z,22.80
2023-01-11T23:14:22.660Z,26.10
2023-01-11T23:16:50.575Z,26.45
2023-01-11T23:19:19.947Z,28.10
2023-01-11T23:21:47.689Z,27.40
2023-01-11T23:24:16.367Z,35.38
2023-01-11T23:26:44.295Z,32.90
2023-01-11T23:29:12.019Z,24.00
2023-01-11T23:31:38.804Z,24.50
2023-01-11T23:34:08.180Z,27.40
2023-01-11T23:36:37.600Z,27.92
2023-01-11T23:39:06.051Z,28.05
2023-01-11T23:41:51.312Z,27.75
2023-01-11T23:44:18.602Z,25.67
2023-01-11T23:47:04.932Z,32.70
2023-01-11T23:49:32.557Z,27.15
2023-01-11T23:51:59.989Z,27.85
2023-01-11T23:54:31.967Z,27.00
2023-01-11T23:57:00.068Z,29.58
2023-01-11T23:59:27.080Z,29.10
